createdAt,value
2018-04-02T00:00:13.669Z,75.08
2018-04-02T00:02:41.164Z,75.09
2018-04-02T00:05:08.613Z,75.18
2018-04-02T00:07:36.204Z,74.59
2018-04-02T00:10:03.712Z,74.39
2018-04-02T00:12:31.163Z,74.49
2018-04-02T00:14:58.658Z,74.20
2018-04-02T00:17:26.115Z,74.22
2018-04-02T00:19:53.571Z,74.12
2018-04-02T00:22:21.052Z,74.36
2018-04-02T00:24:48.512Z,74.29
2018-04-02T00:27:15.974Z,74.52
2018-04-02T00:29:43.452Z,74.62
2018-04-02T00:32:10.903Z,74.30
2018-04-02T00:34:38.347Z,74.43
2018-04-02T00:37:05.836Z,74.10
2018-04-02T00:39:33.285Z,73.98
2018-04-02T00:42:00.739Z,73.62
2018-04-02T00:44:28.256Z,73.46
2018-04-02T00:46:55.710Z,73.23
2018-04-02T00:49:23.188Z,73.16
2018-04-02T00:51:50.630Z,72.98
2018-04-02T00:54:18.070Z,73.11
2018-04-02T00:56:45.786Z,73.06
2018-04-02T00:59:13.249Z,72.53
2018-04-02T01:01:40.755Z,72.30
2018-04-02T01:04:08.211Z,72.31
2018-04-02T01:06:35.665Z,71.91
2018-04-02T01:09:03.167Z,72.05
2018-04-02T01:11:30.643Z,71.71
2018-04-02T01:13:58.088Z,71.62
2018-04-02T01:16:25.557Z,71.09
2018-04-02T01:18:53.028Z,71.19
2018-04-02T01:21:20.481Z,71.26
2018-04-02T01:23:47.960Z,71.33
2018-04-02T01:26:15.408Z,71.79
2018-04-02T01:28:43.670Z,71.88
2018-04-02T01:31:11.124Z,71.14
2018-04-02T01:33:38.564Z,70.99
2018-04-02T01:36:06.011Z,71.04
2018-04-02T01:38:33.477Z,71.76
2018-04-02T01:41:00.925Z,72.35
2018-04-02T01:43:28.370Z,72.67
2018-04-02T01:45:55.840Z,72.94
2018-04-02T01:48:23.359Z,73.20
2018-04-02T01:50:50.823Z,73.42
2018-04-02T01:53:18.277Z,73.53
2018-04-02T01:55:45.727Z,73.79
2018-04-02T01:58:13.176Z,73.85
2018-04-02T02:00:40.740Z,74.07
2018-04-02T02:03:08.199Z,73.63
2018-04-02T02:05:35.672Z,72.83
2018-04-02T02:08:03.128Z,72.66
2018-04-02T02:10:30.579Z,71.45
2018-04-02T02:12:58.037Z,70.62
2018-04-02T02:15:25.597Z,70.57
2018-04-02T02:17:53.059Z,69.83
2018-04-02T02:20:20.500Z,69.67
2018-04-02T02:22:47.955Z,69.67
2018-04-02T02:25:15.437Z,70.03
2018-04-02T02:27:42.931Z,70.10
2018-04-02T02:30:10.385Z,69.97
2018-04-02T02:32:37.864Z,69.84
2018-04-02T02:35:05.320Z,70.27
2018-04-02T02:37:32.797Z,70.34
2018-04-02T02:40:00.253Z,70.37
2018-04-02T02:42:27.686Z,69.79
2018-04-02T02:44:55.168Z,69.59
2018-04-02T02:47:22.731Z,69.55
2018-04-02T02:49:50.171Z,69.88
2018-04-02T02:52:17.655Z,70.96
2018-04-02T02:54:45.106Z,71.25
2018-04-02T02:57:12.563Z,72.79
2018-04-02T02:59:40.032Z,73.26
2018-04-02T03:02:07.465Z,74.07
2018-04-02T03:04:34.949Z,74.69
2018-04-02T03:07:02.418Z,75.33
2018-04-02T03:09:29.887Z,76.01
2018-04-02T03:11:57.339Z,76.55
2018-04-02T03:14:24.796Z,76.79
2018-04-02T03:16:52.257Z,76.95
2018-04-02T03:19:19.714Z,77.20
2018-04-02T03:21:47.772Z,77.85
2018-04-02T03:24:15.222Z,77.36
2018-04-02T03:26:42.982Z,77.75
2018-04-02T03:29:10.438Z,77.96
2018-04-02T03:31:37.881Z,77.43
2018-04-02T03:34:05.344Z,77.00
2018-04-02T03:36:32.807Z,76.99
2018-04-02T03:39:00.248Z,77.38
2018-04-02T03:41:27.731Z,77.13
2018-04-02T03:43:55.171Z,77.15
2018-04-02T03:46:22.614Z,77.07
2018-04-02T03:48:50.079Z,76.17
2018-04-02T03:51:17.542Z,76.51
2018-04-02T03:53:45.043Z,76.27
2018-04-02T03:56:12.515Z,75.68
2018-04-02T03:58:39.968Z,74.67
2018-04-02T04:01:07.788Z,74.73
2018-04-02T04:03:35.234Z,74.46
2018-04-02T04:06:05.886Z,74.47
2018-04-02T04:08:33.327Z,73.09
2018-04-02T04:11:00.791Z,72.81
2018-04-02T04:13:28.252Z,72.47
2018-04-02T04:15:55.740Z,72.69
2018-04-02T04:18:23.203Z,72.89
2018-04-02T04:20:51.018Z,72.61
2018-04-02T04:23:18.456Z,72.88
2018-04-02T04:25:46.033Z,72.56
2018-04-02T04:28:13.490Z,72.52
2018-04-02T04:30:40.962Z,72.44
2018-04-02T04:33:08.418Z,72.00
2018-04-02T04:35:35.874Z,71.55
2018-04-02T04:38:03.374Z,71.52
2018-04-02T04:40:30.864Z,71.46
2018-04-02T04:42:58.290Z,71.55
2018-04-02T04:45:25.980Z,71.53
2018-04-02T04:47:54.723Z,71.31
2018-04-02T04:50:22.226Z,71.14
2018-04-02T04:52:49.862Z,69.94
2018-04-02T04:55:17.329Z,69.56
2018-04-02T04:57:44.812Z,69.07
2018-04-02T05:00:12.298Z,68.79
2018-04-02T05:02:39.746Z,68.50
2018-04-02T05:05:07.351Z,67.68
2018-04-02T05:07:35.038Z,67.40
2018-04-02T05:10:02.608Z,67.52
2018-04-02T05:12:30.091Z,67.58
2018-04-02T05:14:57.568Z,67.07
2018-04-02T05:17:25.062Z,67.45
2018-04-02T05:19:52.544Z,68.38
2018-04-02T05:22:20.118Z,68.63
2018-04-02T05:24:47.579Z,69.08
2018-04-02T05:27:15.082Z,69.56
2018-04-02T05:29:42.566Z,69.77
2018-04-02T05:32:10.039Z,70.16
2018-04-02T05:34:37.753Z,70.50
2018-04-02T05:37:05.227Z,70.55
2018-04-02T05:39:32.720Z,70.71
2018-04-02T05:42:00.202Z,71.01
2018-04-02T05:44:27.656Z,71.00
2018-04-02T05:46:56.230Z,71.10
2018-04-02T05:49:23.701Z,70.82
2018-04-02T05:51:51.213Z,70.89
2018-04-02T05:54:18.689Z,70.81
2018-04-02T05:56:46.160Z,69.92
2018-04-02T05:59:13.630Z,69.79
2018-04-02T06:01:41.135Z,69.48
2018-04-02T06:04:08.621Z,69.21
2018-04-02T06:06:36.112Z,69.06
2018-04-02T06:09:04.034Z,68.39
2018-04-02T06:11:31.942Z,68.47
2018-04-02T06:13:59.502Z,67.58
2018-04-02T06:16:27.933Z,67.81
2018-04-02T06:18:55.501Z,67.17
2018-04-02T06:21:22.997Z,66.82
2018-04-02T06:23:50.500Z,66.52
2018-04-02T06:26:17.989Z,66.28
2018-04-02T06:28:45.447Z,66.49
2018-04-02T06:31:12.978Z,66.08
2018-04-02T06:33:40.470Z,66.30
2018-04-02T06:36:07.971Z,66.50
2018-04-02T06:38:35.427Z,66.36
2018-04-02T06:41:02.927Z,66.32
2018-04-02T06:43:30.448Z,66.04
2018-04-02T06:45:57.917Z,65.95
2018-04-02T06:48:25.394Z,66.29
2018-04-02T06:50:52.930Z,66.22
2018-04-02T06:53:20.421Z,65.96
2018-04-02T06:55:47.908Z,65.43
2018-04-02T06:58:15.404Z,65.03
2018-04-02T07:00:42.891Z,64.26
2018-04-02T07:03:10.351Z,63.82
2018-04-02T07:05:37.831Z,63.47
2018-04-02T07:08:05.302Z,63.27
2018-04-02T07:10:32.768Z,63.29
2018-04-02T07:13:00.288Z,62.61
2018-04-02T07:15:27.821Z,62.14
2018-04-02T07:17:55.319Z,62.15
2018-04-02T07:20:22.867Z,61.38
2018-04-02T07:22:50.365Z,61.14
2018-04-02T07:25:17.865Z,60.18
2018-04-02T07:27:45.370Z,59.83
2018-04-02T07:30:12.877Z,59.51
2018-04-02T07:32:40.403Z,58.83
2018-04-02T07:35:07.911Z,59.13
2018-04-02T07:37:35.438Z,58.72
2018-04-02T07:40:02.913Z,58.62
2018-04-02T07:42:30.391Z,58.77
2018-04-02T07:44:57.910Z,58.79
2018-04-02T07:47:25.436Z,58.41
2018-04-02T07:49:53.962Z,58.34
2018-04-02T07:52:21.440Z,59.61
2018-04-02T07:54:48.905Z,58.64
2018-04-02T07:57:16.414Z,58.07
2018-04-02T07:59:43.879Z,57.58
2018-04-02T08:02:11.349Z,57.60
2018-04-02T08:04:38.883Z,57.36
2018-04-02T08:07:06.369Z,57.00
2018-04-02T08:09:34.133Z,56.94
2018-04-02T08:12:01.623Z,56.21
2018-04-02T08:14:29.108Z,56.05
2018-04-02T08:16:56.650Z,56.35
2018-04-02T08:19:24.257Z,56.34
2018-04-02T08:21:51.739Z,55.34
2018-04-02T08:24:19.224Z,54.42
2018-04-02T08:26:46.702Z,54.53
2018-04-02T08:29:14.176Z,55.24
2018-04-02T08:31:41.664Z,54.75
2018-04-02T08:34:09.133Z,53.91
2018-04-02T08:36:36.649Z,53.25
2018-04-02T08:39:04.158Z,52.48
2018-04-02T08:41:31.641Z,52.69
2018-04-02T08:43:59.146Z,52.50
2018-04-02T08:46:26.632Z,51.38
2018-04-02T08:48:54.144Z,51.34
2018-04-02T08:51:21.629Z,51.93
2018-04-02T08:53:49.113Z,51.69
2018-04-02T08:56:16.594Z,52.07
2018-04-02T08:58:44.132Z,52.12
2018-04-02T09:01:11.642Z,51.26
2018-04-02T09:03:39.112Z,50.94
2018-04-02T09:06:06.587Z,50.65
2018-04-02T09:08:34.068Z,50.71
2018-04-02T09:11:01.523Z,50.28
2018-04-02T09:13:29.036Z,49.15
2018-04-02T09:15:58.070Z,47.85
2018-04-02T09:18:25.690Z,48.18
2018-04-02T09:20:54.533Z,47.90
2018-04-02T09:23:22.179Z,48.17
2018-04-02T09:25:49.804Z,47.65
2018-04-02T09:28:17.548Z,46.72
2018-04-02T09:30:45.429Z,45.99
2018-04-02T09:33:13.235Z,46.08
2018-04-02T09:35:40.858Z,45.70
2018-04-02T09:38:09.183Z,45.41
2018-04-02T09:40:38.454Z,44.03
2018-04-02T09:43:06.106Z,44.39
2018-04-02T09:45:34.722Z,45.13
2018-04-02T09:48:04.735Z,45.06
2018-04-02T09:50:33.011Z,44.63
2018-04-02T09:53:00.617Z,43.29
2018-04-02T09:55:28.280Z,43.37
2018-04-02T09:58:01.952Z,43.83
2018-04-02T10:00:33.741Z,44.70
2018-04-02T10:03:01.766Z,44.61
2018-04-02T10:19:59.454Z,42.33
2018-04-02T10:22:28.348Z,40.85
2018-04-02T10:24:56.113Z,40.55
2018-04-02T10:27:23.768Z,38.88
2018-04-02T10:29:51.379Z,39.03
2018-04-02T10:32:20.295Z,38.95
2018-04-02T10:34:47.850Z,38.54
2018-04-02T10:37:15.767Z,38.49
2018-04-02T10:42:16.354Z,38.84
2018-04-02T10:44:44.002Z,39.84
2018-04-02T10:47:11.800Z,39.79
2018-04-02T10:49:39.461Z,40.63
2018-04-02T10:52:07.737Z,39.70
2018-04-02T10:54:35.485Z,39.98
2018-04-02T10:57:03.610Z,40.35
2018-04-02T10:59:31.809Z,39.78
2018-04-02T11:01:59.719Z,38.85
2018-04-02T11:04:27.526Z,39.40
2018-04-02T11:06:55.536Z,39.41
2018-04-02T11:09:23.697Z,39.74
2018-04-02T11:11:51.598Z,39.78
2018-04-02T11:14:19.355Z,39.70
2018-04-02T11:16:47.050Z,39.35
2018-04-02T11:19:15.089Z,38.86
2018-04-02T11:21:42.654Z,37.56
2018-04-02T11:24:10.395Z,36.98
2018-04-02T11:26:38.066Z,37.52
2018-04-02T11:29:05.781Z,37.50
2018-04-02T11:31:33.550Z,35.57
2018-04-02T11:34:01.259Z,35.66
2018-04-02T11:36:29.043Z,35.28
2018-04-02T11:38:58.455Z,35.09
2018-04-02T11:41:26.356Z,35.11
2018-04-02T11:43:54.433Z,34.69
2018-04-02T11:46:22.184Z,34.25
2018-04-02T11:48:50.000Z,34.73
2018-04-02T11:51:17.777Z,35.25
2018-04-02T11:53:45.674Z,35.49
2018-04-02T11:56:13.699Z,35.38
2018-04-02T11:58:41.416Z,34.89
2018-04-02T12:01:09.241Z,34.72
2018-04-02T12:03:36.981Z,33.78
2018-04-02T12:06:05.288Z,32.85
2018-04-02T12:08:32.971Z,32.30
2018-04-02T12:11:00.589Z,33.19
2018-04-02T12:13:28.194Z,33.23
2018-04-02T12:15:56.121Z,33.56
2018-04-02T12:18:23.834Z,33.42
2018-04-02T12:20:51.565Z,32.98
2018-04-02T12:23:19.544Z,33.14
2018-04-02T12:25:47.335Z,33.43
2018-04-02T12:28:17.300Z,33.21
2018-04-02T12:30:45.162Z,32.17
2018-04-02T12:33:12.750Z,32.36
2018-04-02T12:35:41.444Z,33.11
2018-04-02T12:38:09.413Z,33.32
2018-04-02T12:45:41.603Z,33.28
2018-04-02T12:48:09.407Z,32.84
2018-04-02T12:50:41.221Z,32.79
2018-04-02T12:53:13.571Z,31.84
2018-04-02T12:55:42.858Z,32.08
2018-04-02T12:58:13.811Z,32.25
2018-04-02T13:05:45.492Z,31.57
2018-04-02T13:08:25.196Z,32.30
2018-04-02T13:10:53.418Z,32.00
2018-04-02T13:13:23.222Z,31.54
2018-04-02T13:15:52.303Z,31.41
2018-04-02T13:18:25.417Z,31.22
2018-04-02T13:25:58.020Z,30.36
2018-04-02T13:28:25.954Z,30.19
2018-04-02T13:30:57.538Z,29.34
2018-04-02T13:33:26.326Z,29.80
2018-04-02T13:38:31.650Z,29.17
2018-04-02T13:41:00.005Z,28.70
2018-04-02T13:49:31.117Z,29.17
2018-04-02T13:52:05.813Z,29.64
2018-04-02T13:57:06.968Z,28.90
2018-04-02T14:02:29.785Z,27.15
2018-04-02T14:04:58.422Z,27.24
2018-04-02T14:07:26.512Z,26.68
2018-04-02T14:09:54.685Z,26.44
2018-04-02T14:12:26.133Z,26.14
2018-04-02T14:14:53.950Z,25.30
2018-04-02T14:17:22.400Z,24.04
2018-04-02T14:19:51.776Z,23.38
2018-04-02T14:22:21.201Z,22.23
2018-04-02T14:24:49.623Z,21.42
2018-04-02T14:27:18.604Z,21.16
2018-04-02T14:29:46.294Z,21.35
2018-04-02T14:32:14.089Z,20.05
2018-04-02T14:43:31.307Z,18.80
2018-04-02T14:45:58.999Z,17.67
2018-04-02T14:48:26.553Z,17.78
2018-04-02T14:50:54.231Z,17.50
2018-04-02T14:53:22.272Z,17.02
2018-04-02T14:55:49.971Z,17.22
2018-04-02T14:58:17.556Z,15.84
2018-04-02T15:00:45.212Z,15.69
2018-04-02T15:03:12.780Z,15.46
2018-04-02T15:05:40.342Z,14.64
2018-04-02T15:08:07.982Z,14.35
2018-04-02T15:10:35.528Z,13.81
2018-04-02T15:13:03.975Z,13.73
2018-04-02T15:15:33.641Z,13.51
2018-04-02T15:18:01.412Z,13.17
2018-04-02T15:20:29.029Z,13.23
2018-04-02T15:22:56.621Z,13.34
2018-04-02T15:25:36.178Z,13.20
2018-04-02T15:29:50.652Z,12.65
2018-04-02T15:32:18.917Z,12.85
2018-04-02T15:34:47.027Z,12.80
2018-04-02T15:37:16.861Z,13.38
2018-04-02T15:39:44.542Z,13.35
2018-04-02T15:42:14.682Z,13.08
2018-04-02T15:44:42.586Z,13.05
2018-04-02T15:47:10.753Z,13.08
2018-04-02T16:02:39.878Z,14.87
2018-04-02T16:05:08.366Z,15.16
2018-04-02T16:07:35.970Z,15.84
2018-04-02T16:10:03.548Z,16.28
2018-04-02T16:12:31.456Z,16.58
2018-04-02T16:14:59.011Z,16.06
2018-04-02T16:17:26.616Z,16.25
2018-04-02T16:19:54.201Z,15.72
2018-04-02T16:22:22.130Z,15.36
2018-04-02T16:24:49.933Z,16.17
2018-04-02T16:27:17.704Z,17.07
2018-04-02T16:29:45.317Z,16.99
2018-04-02T16:32:13.153Z,16.85
2018-04-02T16:34:40.643Z,16.99
2018-04-02T16:37:08.253Z,17.24
2018-04-02T16:39:35.866Z,18.63
2018-04-02T16:42:03.502Z,18.64
2018-04-02T16:44:31.026Z,19.32
2018-04-02T16:46:58.592Z,19.55
2018-04-02T16:49:26.154Z,20.16
2018-04-02T16:51:53.822Z,20.61
2018-04-02T16:54:21.399Z,21.80
2018-04-02T16:56:49.013Z,22.51
2018-04-02T16:59:16.593Z,23.69
2018-04-02T17:01:44.123Z,24.76
2018-04-02T17:04:12.109Z,26.15
2018-04-02T17:06:39.712Z,27.76
2018-04-02T17:09:07.387Z,28.67
2018-04-02T17:11:34.942Z,29.53
2018-04-02T17:14:02.450Z,30.47
2018-04-02T17:16:30.057Z,31.60
2018-04-02T17:18:57.587Z,32.54
2018-04-02T17:21:25.185Z,33.19
2018-04-02T17:23:52.749Z,33.86
2018-04-02T17:26:20.240Z,34.84
2018-04-02T17:28:47.791Z,35.84
2018-04-02T17:31:15.324Z,36.67
2018-04-02T17:33:42.833Z,37.48
2018-04-02T17:36:10.406Z,38.23
2018-04-02T17:38:37.943Z,38.82
2018-04-02T17:41:05.482Z,39.13
2018-04-02T17:43:32.986Z,39.91
2018-04-02T17:46:00.542Z,40.19
2018-04-02T17:48:28.014Z,41.06
2018-04-02T17:50:55.605Z,41.43
2018-04-02T17:53:23.146Z,41.99
2018-04-02T17:55:50.664Z,42.56
2018-04-02T17:58:18.203Z,43.01
2018-04-02T18:00:45.737Z,43.28
2018-04-02T18:03:13.346Z,43.65
2018-04-02T18:05:40.851Z,44.03
2018-04-02T18:08:08.419Z,44.46
2018-04-02T18:10:35.957Z,45.07
2018-04-02T18:13:03.480Z,45.61
2018-04-02T18:15:30.966Z,45.90
2018-04-02T18:17:58.529Z,46.29
2018-04-02T18:20:26.030Z,46.42
2018-04-02T18:22:53.536Z,46.74
2018-04-02T18:25:21.036Z,47.25
2018-04-02T18:27:48.570Z,47.69
2018-04-02T18:30:16.120Z,47.99
2018-04-02T18:32:43.636Z,48.37
2018-04-02T18:35:11.174Z,48.32
2018-04-02T18:37:42.199Z,48.74
2018-04-02T18:40:09.703Z,49.08
2018-04-02T18:42:37.575Z,49.63
2018-04-02T18:45:05.140Z,49.82
2018-04-02T18:47:32.810Z,49.89
2018-04-02T19:08:40.273Z,52.85
2018-04-02T19:11:07.881Z,52.79
2018-04-02T19:13:35.358Z,52.84
2018-04-02T19:16:03.121Z,52.91
2018-04-02T19:18:30.641Z,53.40
2018-04-02T19:20:58.244Z,53.53
2018-04-02T19:23:25.703Z,54.00
2018-04-02T19:25:53.261Z,54.28
2018-04-02T19:28:20.810Z,54.47
2018-04-02T19:30:48.762Z,54.88
2018-04-02T19:33:18.329Z,55.35
2018-04-02T19:35:45.897Z,55.58
2018-04-02T19:38:13.381Z,55.86
2018-04-02T19:40:40.957Z,55.93
2018-04-02T19:43:09.025Z,56.32
2018-04-02T19:45:36.512Z,56.79
2018-04-02T19:48:04.097Z,56.97
2018-04-02T19:50:31.596Z,57.03
2018-04-02T19:52:59.109Z,57.44
2018-04-02T19:55:28.046Z,57.46
2018-04-02T19:57:55.594Z,57.69
2018-04-02T20:00:23.257Z,57.82
2018-04-02T20:02:50.725Z,57.92
2018-04-02T20:05:18.210Z,58.03
2018-04-02T20:07:45.901Z,58.12
2018-04-02T20:10:13.415Z,58.48
2018-04-02T20:12:41.889Z,58.46
2018-04-02T20:15:09.429Z,58.61
2018-04-02T20:17:37.092Z,58.67
2018-04-02T20:20:05.752Z,58.82
2018-04-02T20:22:33.285Z,59.03
2018-04-02T20:25:00.893Z,59.29
2018-04-02T20:27:28.571Z,59.54
2018-04-02T20:29:56.147Z,59.74
2018-04-02T20:32:23.705Z,59.83
2018-04-02T20:34:51.274Z,60.14
2018-04-02T20:37:18.783Z,60.32
2018-04-02T20:39:46.421Z,60.35
2018-04-02T20:42:13.910Z,60.22
2018-04-02T20:44:41.428Z,60.37
2018-04-02T20:47:09.047Z,60.54
2018-04-02T20:49:36.557Z,60.35
2018-04-02T20:52:04.722Z,60.20
2018-04-02T20:54:32.259Z,60.14
2018-04-02T20:56:59.747Z,59.90
2018-04-02T20:59:27.227Z,60.07
2018-04-02T21:01:54.774Z,60.09
2018-04-02T21:04:22.282Z,60.30
2018-04-02T21:06:49.784Z,60.60
2018-04-02T21:09:17.294Z,60.73
2018-04-02T21:11:44.800Z,60.68
2018-04-02T21:14:12.311Z,60.87
2018-04-02T21:16:39.999Z,61.46
2018-04-02T21:19:07.544Z,61.23
2018-04-02T21:21:35.079Z,61.11
2018-04-02T21:24:02.587Z,61.34
2018-04-02T21:26:30.134Z,61.45
2018-04-02T21:28:57.651Z,61.63
2018-04-02T21:31:25.191Z,61.88
2018-04-02T21:33:53.265Z,61.95
2018-04-02T21:36:21.128Z,62.22
2018-04-02T21:38:48.603Z,62.31
2018-04-02T21:41:16.109Z,62.15
2018-04-02T21:43:43.626Z,62.16
2018-04-02T21:46:11.096Z,62.14
2018-04-02T21:48:38.594Z,61.99
2018-04-02T21:51:06.121Z,61.88
2018-04-02T21:53:33.598Z,61.56
2018-04-02T21:56:01.092Z,61.25
2018-04-02T21:58:29.540Z,61.37
2018-04-02T22:00:57.029Z,61.72
2018-04-02T22:03:24.562Z,61.77
2018-04-02T22:05:52.094Z,61.83
2018-04-02T22:08:19.595Z,61.98
2018-04-02T22:10:47.087Z,61.87
2018-04-02T22:13:14.639Z,61.93
2018-04-02T22:15:42.156Z,61.69
2018-04-02T22:18:09.654Z,61.58
2018-04-02T22:20:37.178Z,61.22
2018-04-02T22:23:04.681Z,61.50
2018-04-02T22:25:32.210Z,61.58
2018-04-02T22:27:59.724Z,61.67
2018-04-02T22:30:27.233Z,61.78
2018-04-02T22:32:54.703Z,61.85
2018-04-02T22:35:23.543Z,61.87
2018-04-02T22:37:50.997Z,61.92
2018-04-02T22:40:18.520Z,61.98
2018-04-02T22:42:46.018Z,62.10
2018-04-02T22:45:13.484Z,62.46
2018-04-02T22:47:40.970Z,62.54
2018-04-02T22:50:08.459Z,62.70
2018-04-02T22:52:35.922Z,62.93
2018-04-02T22:55:03.412Z,63.10
2018-04-02T22:57:30.908Z,63.21
2018-04-02T22:59:58.511Z,63.20
2018-04-02T23:02:25.981Z,63.34
2018-04-02T23:04:54.195Z,63.73
2018-04-02T23:07:21.746Z,64.01
2018-04-02T23:09:49.230Z,64.34
2018-04-02T23:12:16.708Z,64.29
2018-04-02T23:14:44.987Z,63.97
2018-04-02T23:17:12.491Z,63.85
2018-04-02T23:19:39.995Z,64.54
2018-04-02T23:22:07.519Z,64.82
2018-04-02T23:24:35.033Z,64.97
2018-04-02T23:27:02.532Z,65.35
2018-04-02T23:29:30.037Z,65.42
2018-04-02T23:31:57.481Z,65.78
2018-04-02T23:34:24.944Z,65.94
2018-04-02T23:36:52.461Z,66.45
2018-04-02T23:39:19.971Z,66.96
2018-04-02T23:41:47.468Z,67.21
2018-04-02T23:44:14.947Z,67.62
2018-04-02T23:46:42.476Z,68.03
2018-04-02T23:49:09.937Z,68.42
2018-04-02T23:51:37.387Z,69.18
2018-04-02T23:54:04.848Z,69.48
2018-04-02T23:56:32.304Z,69.41
2018-04-02T23:58:59.798Z,69.40
